createdAt,value
2022-12-15T00:00:53.050Z,-0.53
2022-12-15T00:01:53.967Z,-0.55
2022-12-15T00:04:15.665Z,-0.35
2022-12-15T00:05:16.479Z,-0.31
2022-12-15T00:06:16.504Z,-0.32
2022-12-15T00:07:16.449Z,-0.29
2022-12-15T00:08:16.377Z,-0.34
2022-12-15T00:09:20.342Z,-0.38
2022-12-15T00:10:16.437Z,-0.43
2022-12-15T00:11:16.362Z,-0.43
2022-12-15T00:12:16.356Z,-0.49
2022-12-15T00:13:16.355Z,-0.52
2022-12-15T00:14:16.363Z,-0.52
2022-12-15T00:15:16.388Z,-0.52
2022-12-15T00:16:24.190Z,-0.52
2022-12-15T00:17:16.247Z,-0.47
2022-12-15T00:18:16.244Z,-0.42
2022-12-15T00:19:16.276Z,-0.32
2022-12-15T00:20:16.253Z,-0.28
2022-12-15T00:21:16.211Z,-0.24
2022-12-15T00:22:16.225Z,-0.22
2022-12-15T00:23:16.192Z,-0.24
2022-12-15T00:24:16.191Z,-0.25
2022-12-15T00:25:16.241Z,-0.27
2022-12-15T00:26:16.189Z,-0.32
2022-12-15T00:27:16.162Z,-0.31
2022-12-15T00:28:16.175Z,-0.32
2022-12-15T00:29:16.163Z,-0.34
2022-12-15T00:30:16.160Z,-0.34
2022-12-15T00:31:16.127Z,-0.34
2022-12-15T00:32:16.113Z,-0.39
2022-12-15T00:33:16.096Z,-0.46
2022-12-15T00:34:16.102Z,-0.50
2022-12-15T00:35:16.141Z,-0.57
2022-12-15T00:36:16.110Z,-0.58
2022-12-15T00:37:16.120Z,-0.64
2022-12-15T00:38:16.080Z,-0.68
2022-12-15T00:39:16.067Z,-0.76
2022-12-15T00:40:16.133Z,-0.85
2022-12-15T00:41:16.020Z,-0.90
2022-12-15T00:42:16.008Z,-0.95
2022-12-15T00:43:16.013Z,-1.03
2022-12-15T00:44:20.599Z,-1.04
2022-12-15T00:45:15.994Z,-1.08
2022-12-15T00:46:16.173Z,-1.16
2022-12-15T00:47:15.991Z,-1.15
2022-12-15T00:48:16.021Z,-1.19
2022-12-15T00:49:15.939Z,-1.25
2022-12-15T00:50:15.955Z,-1.29
2022-12-15T00:51:15.918Z,-1.36
2022-12-15T00:52:15.951Z,-1.37
2022-12-15T00:53:15.921Z,-1.36
2022-12-15T00:54:18.201Z,-1.41
2022-12-15T00:55:15.947Z,-1.46
2022-12-15T00:56:15.876Z,-1.47
2022-12-15T00:57:15.907Z,-1.52
2022-12-15T00:58:15.851Z,-1.58
2022-12-15T00:59:15.902Z,-1.59
2022-12-15T01:00:15.870Z,-1.64
2022-12-15T01:01:15.856Z,-1.67
2022-12-15T01:02:16.001Z,-1.65
2022-12-15T01:03:15.979Z,-1.69
2022-12-15T01:04:15.900Z,-1.65
2022-12-15T01:05:15.808Z,-1.70
2022-12-15T01:06:15.797Z,-1.72
2022-12-15T01:07:15.772Z,-1.75
2022-12-15T01:08:15.788Z,-1.76
2022-12-15T01:09:15.747Z,-1.70
2022-12-15T01:10:15.820Z,-1.69
2022-12-15T01:11:15.730Z,-1.70
2022-12-15T01:12:15.753Z,-1.67
2022-12-15T01:13:15.703Z,-1.64
2022-12-15T01:14:15.695Z,-1.64
2022-12-15T01:15:15.720Z,-1.62
2022-12-15T01:16:15.723Z,-1.67
2022-12-15T01:17:15.662Z,-1.67
2022-12-15T01:18:15.691Z,-1.69
2022-12-15T01:19:15.662Z,-1.67
2022-12-15T01:20:15.687Z,-1.67
2022-12-15T01:21:15.661Z,-1.64
2022-12-15T01:22:15.641Z,-1.69
2022-12-15T01:23:15.635Z,-1.69
2022-12-15T01:24:15.634Z,-1.73
2022-12-15T01:25:15.618Z,-1.73
2022-12-15T01:26:15.588Z,-1.75
2022-12-15T01:27:15.575Z,-1.72
2022-12-15T01:28:15.570Z,-1.75
2022-12-15T01:29:15.592Z,-1.75
2022-12-15T01:30:15.575Z,-1.76
2022-12-15T01:31:15.602Z,-1.76
2022-12-15T01:32:15.574Z,-1.78
2022-12-15T01:33:15.507Z,-1.75
2022-12-15T01:34:15.525Z,-1.75
2022-12-15T01:35:15.497Z,-1.78
2022-12-15T01:36:15.547Z,-1.76
2022-12-15T01:37:15.474Z,-1.79
2022-12-15T01:38:15.491Z,-1.75
2022-12-15T01:39:15.446Z,-1.76
2022-12-15T01:40:15.449Z,-1.78
2022-12-15T01:41:15.487Z,-1.73
2022-12-15T01:42:15.444Z,-1.73
2022-12-15T01:43:15.432Z,-1.76
2022-12-15T01:44:15.414Z,-1.76
2022-12-15T01:45:15.401Z,-1.79
2022-12-15T01:46:15.466Z,-1.76
2022-12-15T01:47:15.440Z,-1.79
2022-12-15T01:48:15.376Z,-1.80
2022-12-15T01:49:15.379Z,-1.82
2022-12-15T01:50:15.396Z,-1.80
2022-12-15T01:51:15.344Z,-1.80
2022-12-15T01:52:15.344Z,-1.73
2022-12-15T01:53:15.360Z,-1.67
2022-12-15T01:54:15.361Z,-1.62
2022-12-15T01:55:15.350Z,-1.61
2022-12-15T01:56:15.287Z,-1.61
2022-12-15T01:57:15.328Z,-1.62
2022-12-15T01:58:15.304Z,-1.62
2022-12-15T01:59:15.336Z,-1.69
2022-12-15T02:00:15.318Z,-1.70
2022-12-15T02:01:15.278Z,-1.67
2022-12-15T02:02:15.383Z,-1.72
2022-12-15T02:03:15.248Z,-1.70
2022-12-15T02:04:15.242Z,-1.69
2022-12-15T02:05:15.238Z,-1.69
2022-12-15T02:06:15.202Z,-1.73
2022-12-15T02:07:15.210Z,-1.73
2022-12-15T02:08:15.241Z,-1.73
2022-12-15T02:09:15.166Z,-1.69
2022-12-15T02:10:15.217Z,-1.62
2022-12-15T02:11:15.176Z,-1.64
2022-12-15T02:12:15.159Z,-1.65
2022-12-15T02:13:15.135Z,-1.67
2022-12-15T02:14:15.147Z,-1.69
2022-12-15T02:15:15.142Z,-1.72
2022-12-15T02:16:15.187Z,-1.72
2022-12-15T02:17:15.092Z,-1.69
2022-12-15T02:18:15.084Z,-1.69
2022-12-15T02:19:15.129Z,-1.69
2022-12-15T02:20:15.086Z,-1.70
2022-12-15T02:21:15.094Z,-1.69
2022-12-15T02:22:15.062Z,-1.69
2022-12-15T02:23:15.038Z,-1.70
2022-12-15T02:24:15.041Z,-1.70
2022-12-15T02:25:15.019Z,-1.67
2022-12-15T02:26:15.055Z,-1.73
2022-12-15T02:27:15.027Z,-1.72
2022-12-15T02:28:14.991Z,-1.72
2022-12-15T02:29:15.008Z,-1.72
2022-12-15T02:30:14.954Z,-1.72
2022-12-15T02:31:15.050Z,-1.70
2022-12-15T02:32:14.958Z,-1.72
2022-12-15T02:33:14.979Z,-1.69
2022-12-15T02:34:14.927Z,-1.72
2022-12-15T02:35:14.922Z,-1.73
2022-12-15T02:36:14.965Z,-1.72
2022-12-15T02:37:14.903Z,-1.72
2022-12-15T02:38:14.890Z,-1.69
2022-12-15T02:39:14.879Z,-1.73
2022-12-15T02:40:14.873Z,-1.72
2022-12-15T02:41:14.854Z,-1.79
2022-12-15T02:42:14.866Z,-1.76
2022-12-15T02:43:14.850Z,-1.80
2022-12-15T02:44:14.826Z,-1.82
2022-12-15T02:45:14.815Z,-1.82
2022-12-15T02:46:14.875Z,-1.83
2022-12-15T02:47:14.815Z,-1.88
2022-12-15T02:48:14.780Z,-1.90
2022-12-15T02:49:14.771Z,-1.90
2022-12-15T02:50:14.784Z,-1.94
2022-12-15T02:51:15.137Z,-1.98
2022-12-15T02:52:14.761Z,-2.00
2022-12-15T02:53:14.763Z,-2.04
2022-12-15T02:54:14.747Z,-2.08
2022-12-15T02:55:14.717Z,-2.14
2022-12-15T02:56:14.735Z,-2.14
2022-12-15T02:57:14.749Z,-2.15
2022-12-15T02:58:14.691Z,-2.19
2022-12-15T02:59:14.673Z,-2.24
2022-12-15T03:00:14.687Z,-2.24
2022-12-15T03:01:14.680Z,-2.26
2022-12-15T03:02:14.831Z,-2.26
2022-12-15T03:03:14.720Z,-2.27
2022-12-15T03:04:14.636Z,-2.24
2022-12-15T03:05:14.681Z,-2.30
2022-12-15T03:06:14.647Z,-2.29
2022-12-15T03:07:14.603Z,-2.30
2022-12-15T03:08:14.615Z,-2.34
2022-12-15T03:09:14.580Z,-2.35
2022-12-15T03:10:14.579Z,-2.30
2022-12-15T03:11:14.574Z,-2.30
2022-12-15T03:12:14.567Z,-2.34
2022-12-15T03:13:14.586Z,-2.34
2022-12-15T03:14:14.553Z,-2.35
2022-12-15T03:15:14.535Z,-2.35
2022-12-15T03:16:14.557Z,-2.37
2022-12-15T03:17:14.508Z,-2.38
2022-12-15T03:18:14.525Z,-2.35
2022-12-15T03:19:14.544Z,-2.38
2022-12-15T03:20:14.420Z,-2.40
2022-12-15T03:21:14.466Z,-2.41
2022-12-15T03:22:14.452Z,-2.45
2022-12-15T03:23:14.463Z,-2.43
2022-12-15T03:24:14.465Z,-2.41
2022-12-15T03:25:14.451Z,-2.41
2022-12-15T03:26:14.418Z,-2.43
2022-12-15T03:27:14.401Z,-2.41
2022-12-15T03:28:14.486Z,-2.41
2022-12-15T03:29:14.388Z,-2.38
2022-12-15T03:30:14.487Z,-2.37
2022-12-15T03:31:14.443Z,-2.38
2022-12-15T03:32:14.419Z,-2.35
2022-12-15T03:33:14.368Z,-2.30
2022-12-15T03:34:14.358Z,-2.33
2022-12-15T03:35:14.343Z,-2.34
2022-12-15T03:36:14.327Z,-2.37
2022-12-15T03:37:14.333Z,-2.38
2022-12-15T03:38:14.343Z,-2.37
2022-12-15T03:39:14.296Z,-2.43
2022-12-15T03:40:14.287Z,-2.37
2022-12-15T03:41:14.259Z,-2.41
2022-12-15T03:42:14.263Z,-2.45
2022-12-15T03:43:14.271Z,-2.38
2022-12-15T03:44:14.279Z,-2.45
2022-12-15T03:45:14.245Z,-2.45
2022-12-15T03:46:14.319Z,-2.46
2022-12-15T03:47:14.213Z,-2.55
2022-12-15T03:48:14.245Z,-2.52
2022-12-15T03:49:14.186Z,-2.51
2022-12-15T03:50:14.223Z,-2.51
2022-12-15T03:51:14.171Z,-2.48
2022-12-15T03:52:14.190Z,-2.48
2022-12-15T03:53:14.173Z,-2.45
2022-12-15T03:54:14.163Z,-2.46
2022-12-15T03:55:14.165Z,-2.46
2022-12-15T03:56:14.162Z,-2.49
2022-12-15T03:57:14.140Z,-2.51
2022-12-15T03:58:14.118Z,-2.49
2022-12-15T03:59:14.099Z,-2.48
2022-12-15T04:00:14.157Z,-2.48
2022-12-15T04:01:14.165Z,-2.51
2022-12-15T04:02:14.270Z,-2.49
2022-12-15T04:03:14.161Z,-2.51
2022-12-15T04:04:14.087Z,-2.52
2022-12-15T04:05:14.066Z,-2.51
2022-12-15T04:06:14.043Z,-2.55
2022-12-15T04:07:14.033Z,-2.55
2022-12-15T04:08:14.041Z,-2.55
2022-12-15T04:09:14.016Z,-2.54
2022-12-15T04:10:14.052Z,-2.48
2022-12-15T04:11:14.014Z,-2.46
2022-12-15T04:12:14.007Z,-2.46
2022-12-15T04:13:13.988Z,-2.45
2022-12-15T04:14:13.973Z,-2.43
2022-12-15T04:15:14.012Z,-2.41
2022-12-15T04:16:19.509Z,-2.37
2022-12-15T04:17:13.986Z,-2.34
2022-12-15T04:18:14.022Z,-2.35
2022-12-15T04:19:13.887Z,-2.35
2022-12-15T04:20:13.886Z,-2.27
2022-12-15T04:21:13.915Z,-2.22
2022-12-15T04:22:17.893Z,-2.16
2022-12-15T04:23:13.899Z,-2.18
2022-12-15T04:24:13.862Z,-2.21
2022-12-15T04:25:13.845Z,-2.21
2022-12-15T04:26:13.863Z,-2.24
2022-12-15T04:27:13.827Z,-2.22
2022-12-15T04:28:13.818Z,-2.24
2022-12-15T04:29:13.821Z,-2.21
2022-12-15T04:30:13.801Z,-2.27
2022-12-15T04:31:13.935Z,-2.27
2022-12-15T04:32:13.776Z,-2.21
2022-12-15T04:33:13.774Z,-2.26
2022-12-15T04:34:13.750Z,-2.29
2022-12-15T04:35:13.784Z,-2.27
2022-12-15T04:36:13.766Z,-2.30
2022-12-15T04:37:13.751Z,-2.27
2022-12-15T04:38:13.715Z,-2.29
2022-12-15T04:39:13.709Z,-2.30
2022-12-15T04:40:13.716Z,-2.29
2022-12-15T04:41:13.688Z,-2.26
2022-12-15T04:42:13.703Z,-2.29
2022-12-15T04:43:13.698Z,-2.26
2022-12-15T04:44:13.600Z,-2.24
2022-12-15T04:45:20.170Z,-2.22
2022-12-15T04:46:13.737Z,-2.24
2022-12-15T04:47:13.667Z,-2.27
2022-12-15T04:48:13.639Z,-2.33
2022-12-15T04:49:13.640Z,-2.30
2022-12-15T04:50:13.608Z,-2.37
2022-12-15T04:51:13.596Z,-2.34
2022-12-15T04:52:13.636Z,-2.43
2022-12-15T04:53:13.571Z,-2.43
2022-12-15T04:54:13.560Z,-2.38
2022-12-15T04:55:13.609Z,-2.43
2022-12-15T04:56:18.271Z,-2.45
2022-12-15T04:57:13.612Z,-2.45
2022-12-15T04:58:13.533Z,-2.48
2022-12-15T04:59:13.555Z,-2.46
2022-12-15T05:00:13.512Z,-2.55
2022-12-15T05:01:13.551Z,-2.59
2022-12-15T05:02:13.703Z,-2.61
2022-12-15T05:03:18.122Z,-2.64
2022-12-15T05:04:13.572Z,-2.66
2022-12-15T05:05:13.478Z,-2.63
2022-12-15T05:06:13.457Z,-2.56
2022-12-15T05:07:13.453Z,-2.58
2022-12-15T05:08:13.452Z,-2.55
2022-12-15T05:09:13.455Z,-2.61
2022-12-15T05:10:15.314Z,-2.55
2022-12-15T05:11:13.348Z,-2.54
2022-12-15T05:12:13.429Z,-2.52
2022-12-15T05:13:13.409Z,-2.56
2022-12-15T05:14:13.401Z,-2.51
2022-12-15T05:15:13.409Z,-2.49
2022-12-15T05:16:13.432Z,-2.46
2022-12-15T05:17:13.419Z,-2.40
2022-12-15T05:18:13.320Z,-2.43
2022-12-15T05:19:13.326Z,-2.48
2022-12-15T05:20:13.335Z,-2.41
2022-12-15T05:21:13.294Z,-2.35
2022-12-15T05:22:13.280Z,-2.35
2022-12-15T05:23:13.296Z,-2.34
2022-12-15T05:24:13.294Z,-2.33
2022-12-15T05:25:13.197Z,-2.27
2022-12-15T05:26:13.271Z,-2.34
2022-12-15T05:27:13.230Z,-2.38
2022-12-15T05:28:13.266Z,-2.43
2022-12-15T05:29:13.220Z,-2.49
2022-12-15T05:30:13.202Z,-2.54
2022-12-15T05:31:13.351Z,-2.55
2022-12-15T05:32:13.194Z,-2.58
2022-12-15T05:33:13.173Z,-2.63
2022-12-15T05:34:13.221Z,-2.63
2022-12-15T05:35:13.156Z,-2.61
2022-12-15T05:36:13.134Z,-2.59
2022-12-15T05:37:13.108Z,-2.59
2022-12-15T05:38:13.127Z,-2.55
2022-12-15T05:39:13.139Z,-2.59
2022-12-15T05:40:13.105Z,-2.58
2022-12-15T05:41:13.098Z,-2.56
2022-12-15T05:42:13.135Z,-2.61
2022-12-15T05:43:13.021Z,-2.61
2022-12-15T05:44:13.069Z,-2.63
2022-12-15T05:45:13.129Z,-2.61
2022-12-15T05:46:13.080Z,-2.63
2022-12-15T05:47:13.054Z,-2.63
2022-12-15T05:48:13.023Z,-2.63
2022-12-15T05:49:13.042Z,-2.63
2022-12-15T05:50:13.053Z,-2.66
2022-12-15T05:51:13.006Z,-2.61
2022-12-15T05:52:12.961Z,-2.54
2022-12-15T05:53:12.981Z,-2.48
2022-12-15T05:54:12.975Z,-2.46
2022-12-15T05:55:12.924Z,-2.43
2022-12-15T05:56:12.944Z,-2.41
2022-12-15T05:57:12.942Z,-2.46
2022-12-15T05:58:12.938Z,-2.45
2022-12-15T05:59:12.909Z,-2.43
2022-12-15T06:00:12.867Z,-2.41
2022-12-15T06:01:12.914Z,-2.38
2022-12-15T06:02:13.084Z,-2.43
2022-12-15T06:03:13.010Z,-2.45
2022-12-15T06:04:13.041Z,-2.48
2022-12-15T06:05:12.885Z,-2.48
2022-12-15T06:06:12.877Z,-2.48
2022-12-15T06:07:12.898Z,-2.41
2022-12-15T06:08:12.828Z,-2.37
2022-12-15T06:09:12.815Z,-2.34
2022-12-15T06:10:12.826Z,-2.30
2022-12-15T06:11:12.832Z,-2.35
2022-12-15T06:12:12.735Z,-2.37
2022-12-15T06:13:12.775Z,-2.38
2022-12-15T06:14:12.765Z,-2.41
2022-12-15T06:15:12.763Z,-2.46
2022-12-15T06:16:12.785Z,-2.49
2022-12-15T06:17:12.783Z,-2.54
2022-12-15T06:18:12.742Z,-2.56
2022-12-15T06:19:12.731Z,-2.63
2022-12-15T06:20:12.699Z,-2.66
2022-12-15T06:21:12.660Z,-2.67
2022-12-15T06:22:12.792Z,-2.72
2022-12-15T06:23:12.672Z,-2.70
2022-12-15T06:24:12.713Z,-2.73
2022-12-15T06:25:12.687Z,-2.70
2022-12-15T06:26:12.644Z,-2.73
2022-12-15T06:27:12.647Z,-2.74
2022-12-15T06:28:12.643Z,-2.79
2022-12-15T06:29:12.614Z,-2.79
2022-12-15T06:30:12.619Z,-2.84
2022-12-15T06:31:12.663Z,-2.85
2022-12-15T06:32:12.768Z,-2.82
2022-12-15T06:33:12.614Z,-2.82
2022-12-15T06:34:12.577Z,-2.79
2022-12-15T06:35:12.560Z,-2.74
2022-12-15T06:36:12.559Z,-2.79
2022-12-15T06:37:12.936Z,-2.73
2022-12-15T06:38:12.486Z,-2.73
2022-12-15T06:39:12.490Z,-2.63
2022-12-15T06:40:12.489Z,-2.59
2022-12-15T06:41:12.546Z,-2.59
2022-12-15T06:42:12.725Z,-2.59
2022-12-15T06:43:12.550Z,-2.58
2022-12-15T06:44:12.479Z,-2.54
2022-12-15T06:45:12.691Z,-2.55
2022-12-15T06:46:12.486Z,-2.55
2022-12-15T06:47:12.513Z,-2.58
2022-12-15T06:48:12.423Z,-2.61
2022-12-15T06:49:12.433Z,-2.69
2022-12-15T06:50:12.452Z,-2.74
2022-12-15T06:51:16.821Z,-2.80
2022-12-15T06:52:12.364Z,-2.85
2022-12-15T06:53:12.373Z,-2.90
2022-12-15T06:54:12.342Z,-2.88
2022-12-15T06:55:12.326Z,-2.92
2022-12-15T06:56:12.289Z,-2.90
2022-12-15T06:57:12.278Z,-2.92
2022-12-15T06:58:12.278Z,-2.97
2022-12-15T06:59:12.345Z,-2.98
2022-12-15T07:00:12.258Z,-3.03
2022-12-15T07:01:12.241Z,-3.05
2022-12-15T07:02:12.689Z,-3.08
2022-12-15T07:03:12.430Z,-3.12
2022-12-15T07:04:12.544Z,-3.10
2022-12-15T07:05:12.205Z,-3.12
2022-12-15T07:06:12.205Z,-3.20
2022-12-15T07:07:12.186Z,-3.20
2022-12-15T07:08:12.186Z,-3.23
2022-12-15T07:09:12.190Z,-3.18
2022-12-15T07:10:12.190Z,-3.18
2022-12-15T07:11:12.214Z,-3.23
2022-12-15T07:12:12.139Z,-3.33
2022-12-15T07:13:12.159Z,-3.39
2022-12-15T07:14:12.124Z,-3.41
2022-12-15T07:15:12.215Z,-3.51
2022-12-15T07:16:12.183Z,-3.57
2022-12-15T07:17:12.124Z,-3.57
2022-12-15T07:18:12.126Z,-3.62
2022-12-15T07:19:12.089Z,-3.62
2022-12-15T07:20:12.065Z,-3.63
2022-12-15T07:21:12.073Z,-3.63
2022-12-15T07:22:12.131Z,-3.55
2022-12-15T07:23:12.059Z,-3.48
2022-12-15T07:24:12.024Z,-3.47
2022-12-15T07:25:12.029Z,-3.45
2022-12-15T07:26:12.042Z,-3.49
2022-12-15T07:27:11.999Z,-3.47
2022-12-15T07:28:12.006Z,-3.44
2022-12-15T07:29:12.025Z,-3.47
2022-12-15T07:30:12.008Z,-3.49
2022-12-15T07:31:12.017Z,-3.49
2022-12-15T07:32:12.023Z,-3.51
2022-12-15T07:33:12.154Z,-3.54
2022-12-15T07:34:11.920Z,-3.59
2022-12-15T07:35:11.946Z,-3.52
2022-12-15T07:36:11.933Z,-3.52
2022-12-15T07:37:11.896Z,-3.48
2022-12-15T07:38:11.877Z,-3.44
2022-12-15T07:39:11.997Z,-3.41
2022-12-15T07:40:11.870Z,-3.44
2022-12-15T07:41:11.868Z,-3.44
2022-12-15T07:42:11.868Z,-3.42
2022-12-15T07:43:11.841Z,-3.49
2022-12-15T07:44:11.823Z,-3.49
2022-12-15T07:45:11.849Z,-3.51
2022-12-15T07:46:11.832Z,-3.49
2022-12-15T07:47:11.845Z,-3.49
2022-12-15T07:48:11.789Z,-3.48
2022-12-15T07:49:11.850Z,-3.49
2022-12-15T07:50:11.750Z,-3.45
2022-12-15T07:51:19.120Z,-3.48
2022-12-15T07:52:11.817Z,-3.42
2022-12-15T07:53:11.768Z,-3.39
2022-12-15T07:54:11.725Z,-3.36
2022-12-15T07:55:11.702Z,-3.30
2022-12-15T07:56:11.794Z,-3.29
2022-12-15T07:57:11.760Z,-3.30
2022-12-15T07:58:11.824Z,-3.38
2022-12-15T07:59:11.674Z,-3.47
2022-12-15T08:00:11.664Z,-3.48
2022-12-15T08:01:11.691Z,-3.54
2022-12-15T08:02:11.930Z,-3.60
2022-12-15T08:03:11.792Z,-3.49
2022-12-15T08:04:11.652Z,-3.48
2022-12-15T08:05:11.619Z,-3.38
2022-12-15T08:06:11.673Z,-3.33
2022-12-15T08:07:11.603Z,-3.38
2022-12-15T08:08:15.336Z,-3.41
2022-12-15T08:09:11.639Z,-3.44
2022-12-15T08:10:11.556Z,-3.44
2022-12-15T08:11:11.569Z,-3.47
2022-12-15T08:12:11.639Z,-3.44
2022-12-15T08:13:18.054Z,-3.36
2022-12-15T08:14:16.899Z,-3.33
2022-12-15T08:15:11.547Z,-3.26
2022-12-15T08:16:11.873Z,-3.23
2022-12-15T08:17:11.578Z,-3.18
2022-12-15T08:18:11.521Z,-3.24
2022-12-15T08:19:11.505Z,-3.27
2022-12-15T08:20:11.580Z,-3.31
2022-12-15T08:21:11.456Z,-3.39
2022-12-15T08:22:11.434Z,-3.34
2022-12-15T08:23:11.446Z,-3.23
2022-12-15T08:24:11.591Z,-3.20
2022-12-15T08:25:11.439Z,-3.15
2022-12-15T08:26:11.441Z,-3.16
2022-12-15T08:27:11.525Z,-3.18
2022-12-15T08:28:11.535Z,-3.21
2022-12-15T08:29:48.947Z,-3.10
2022-12-15T08:30:11.396Z,-3.02
2022-12-15T08:31:11.387Z,-2.84
2022-12-15T08:32:11.479Z,-2.70
2022-12-15T08:33:11.475Z,-2.58
2022-12-15T08:34:11.428Z,-2.52
2022-12-15T08:35:31.804Z,-2.58
2022-12-15T08:36:11.669Z,-2.67
2022-12-15T08:37:11.347Z,-2.80
2022-12-15T08:38:11.572Z,-2.92
2022-12-15T08:39:11.282Z,-3.09
2022-12-15T08:40:11.373Z,-3.13
2022-12-15T08:41:11.292Z,-3.08
2022-12-15T08:42:11.260Z,-3.09
2022-12-15T08:43:11.263Z,-3.18
2022-12-15T08:44:11.239Z,-3.15
2022-12-15T08:45:11.251Z,-3.15
2022-12-15T08:46:11.255Z,-3.13
2022-12-15T08:47:11.192Z,-3.12
2022-12-15T08:48:11.181Z,-3.05
2022-12-15T08:49:13.300Z,-3.03
2022-12-15T08:50:11.186Z,-2.95
2022-12-15T08:51:11.185Z,-2.88
2022-12-15T08:52:11.181Z,-2.87
2022-12-15T08:53:30.875Z,-2.77
2022-12-15T08:54:11.149Z,-2.76
2022-12-15T08:55:11.113Z,-2.76
2022-12-15T08:56:11.162Z,-2.77
2022-12-15T08:57:11.097Z,-2.66
2022-12-15T08:58:11.085Z,-2.54
2022-12-15T08:59:11.149Z,-2.52
2022-12-15T09:00:11.090Z,-2.58
2022-12-15T09:01:11.232Z,-2.67
2022-12-15T09:02:11.152Z,-2.70
2022-12-15T09:03:11.058Z,-2.70
2022-12-15T09:04:11.104Z,-2.72
2022-12-15T09:05:11.052Z,-2.70
2022-12-15T09:06:11.022Z,-2.72
2022-12-15T09:07:11.021Z,-2.74
2022-12-15T09:08:11.024Z,-2.82
2022-12-15T09:09:10.977Z,-2.87
2022-12-15T09:10:10.999Z,-2.92
2022-12-15T09:11:10.976Z,-2.97
2022-12-15T09:12:11.264Z,-2.98
2022-12-15T09:13:10.928Z,-2.97
2022-12-15T09:14:10.940Z,-2.94
2022-12-15T09:15:11.006Z,-2.91
2022-12-15T09:16:11.568Z,-2.87
2022-12-15T09:17:10.999Z,-2.82
2022-12-15T09:18:10.911Z,-2.79
2022-12-15T09:19:10.892Z,-2.72
2022-12-15T09:20:14.175Z,-2.67
2022-12-15T09:21:10.868Z,-2.66
2022-12-15T09:22:10.876Z,-2.64
2022-12-15T09:23:10.856Z,-2.67
2022-12-15T09:24:10.832Z,-2.67
2022-12-15T09:25:10.813Z,-2.67
2022-12-15T09:26:10.819Z,-2.69
2022-12-15T09:27:10.822Z,-2.73
2022-12-15T09:28:10.814Z,-2.74
2022-12-15T09:29:10.791Z,-2.82
2022-12-15T09:30:10.783Z,-2.84
2022-12-15T09:31:10.782Z,-2.80
2022-12-15T09:32:14.213Z,-2.82
2022-12-15T09:33:10.747Z,-2.76
2022-12-15T09:34:10.767Z,-2.76
2022-12-15T09:35:10.737Z,-2.79
2022-12-15T09:36:10.969Z,-2.72
2022-12-15T09:37:10.721Z,-2.76
2022-12-15T09:38:10.707Z,-2.70
2022-12-15T09:39:10.686Z,-2.66
2022-12-15T09:40:10.720Z,-2.58
2022-12-15T09:41:10.701Z,-2.48
2022-12-15T09:42:10.665Z,-2.55
2022-12-15T09:43:33.464Z,-2.55
2022-12-15T09:44:10.687Z,-2.63
2022-12-15T09:45:10.624Z,-2.61
2022-12-15T09:46:10.742Z,-2.61
2022-12-15T09:47:10.848Z,-2.56
2022-12-15T09:48:10.652Z,-2.56
2022-12-15T09:49:10.601Z,-2.55
2022-12-15T09:50:10.624Z,-2.59
2022-12-15T09:51:10.590Z,-2.69
2022-12-15T09:52:11.441Z,-2.77
2022-12-15T09:53:29.837Z,-2.79
2022-12-15T09:54:10.587Z,-2.77
2022-12-15T09:55:10.593Z,-2.77
2022-12-15T09:56:10.522Z,-2.77
2022-12-15T09:57:10.508Z,-2.74
2022-12-15T09:58:11.241Z,-2.76
2022-12-15T09:59:10.925Z,-2.74
2022-12-15T10:00:10.501Z,-2.72
2022-12-15T10:01:10.514Z,-2.70
2022-12-15T10:02:10.685Z,-2.72
2022-12-15T10:03:10.624Z,-2.69
2022-12-15T10:04:10.559Z,-2.66
2022-12-15T10:05:10.507Z,-2.58
2022-12-15T10:06:20.132Z,-2.55
2022-12-15T10:07:10.422Z,-2.54
2022-12-15T10:08:10.458Z,-2.51
2022-12-15T10:09:10.669Z,-2.49
2022-12-15T10:10:10.397Z,-2.46
2022-12-15T10:11:10.376Z,-2.45
2022-12-15T10:12:10.361Z,-2.48
2022-12-15T10:13:10.386Z,-2.49
2022-12-15T10:14:10.342Z,-2.54
2022-12-15T10:15:10.360Z,-2.63
2022-12-15T10:16:10.511Z,-2.59
2022-12-15T10:17:10.336Z,-2.58
2022-12-15T10:18:10.325Z,-2.55
2022-12-15T10:19:10.298Z,-2.61
2022-12-15T10:20:10.338Z,-2.64
2022-12-15T10:21:10.299Z,-2.70
2022-12-15T10:22:10.288Z,-2.66
2022-12-15T10:23:10.383Z,-2.52
2022-12-15T10:24:10.248Z,-2.24
2022-12-15T10:25:11.289Z,-2.00
2022-12-15T10:26:10.335Z,-1.83
2022-12-15T10:27:10.238Z,-1.83
2022-12-15T10:28:10.249Z,-1.78
2022-12-15T10:29:10.202Z,-1.78
2022-12-15T10:30:10.510Z,-1.82
2022-12-15T10:31:10.243Z,-1.88
2022-12-15T10:32:10.202Z,-1.82
2022-12-15T10:33:10.164Z,-1.80
2022-12-15T10:34:10.164Z,-1.80
2022-12-15T10:35:10.187Z,-1.78
2022-12-15T10:36:10.130Z,-1.75
2022-12-15T10:37:10.124Z,-1.78
2022-12-15T10:38:10.137Z,-1.86
2022-12-15T10:39:12.945Z,-1.91
2022-12-15T10:40:10.094Z,-1.96
2022-12-15T10:41:10.141Z,-2.03
2022-12-15T10:42:10.114Z,-1.96
2022-12-15T10:43:10.131Z,-1.91
2022-12-15T10:44:10.073Z,-1.96
2022-12-15T10:45:10.032Z,-1.96
2022-12-15T10:46:10.141Z,-2.00
2022-12-15T10:47:10.018Z,-2.00
2022-12-15T10:48:10.019Z,-2.03
2022-12-15T10:49:10.022Z,-2.19
2022-12-15T10:50:10.018Z,-2.27
2022-12-15T10:51:10.018Z,-2.27
2022-12-15T10:52:10.029Z,-2.26
2022-12-15T10:53:09.980Z,-2.26
2022-12-15T10:54:10.092Z,-2.21
2022-12-15T10:55:09.959Z,-2.14
2022-12-15T10:56:09.952Z,-2.11
2022-12-15T10:57:09.968Z,-2.11
2022-12-15T10:58:09.916Z,-2.14
2022-12-15T10:59:09.929Z,-2.16
2022-12-15T11:00:09.895Z,-2.16
2022-12-15T11:01:09.997Z,-2.24
2022-12-15T11:02:09.991Z,-2.19
2022-12-15T11:03:10.186Z,-2.18
2022-12-15T11:04:09.912Z,-2.26
2022-12-15T11:05:09.870Z,-2.34
2022-12-15T11:06:09.846Z,-2.40
2022-12-15T11:07:09.854Z,-2.37
2022-12-15T11:08:12.288Z,-2.30
2022-12-15T11:09:09.828Z,-2.30
2022-12-15T11:10:09.831Z,-2.26
2022-12-15T11:11:09.814Z,-2.21
2022-12-15T11:12:12.117Z,-2.18
2022-12-15T11:13:09.760Z,-2.19
2022-12-15T11:14:09.777Z,-2.19
2022-12-15T11:15:09.794Z,-2.18
2022-12-15T11:16:09.775Z,-2.14
2022-12-15T11:17:09.732Z,-2.06
2022-12-15T11:18:09.719Z,-2.00
2022-12-15T11:19:09.706Z,-2.09
2022-12-15T11:20:09.749Z,-2.16
2022-12-15T11:21:09.724Z,-2.12
2022-12-15T11:22:09.703Z,-2.08
2022-12-15T11:23:09.709Z,-2.06
2022-12-15T11:24:09.681Z,-2.06
2022-12-15T11:25:09.708Z,-1.97
2022-12-15T11:26:09.674Z,-1.86
2022-12-15T11:27:09.630Z,-1.79
2022-12-15T11:28:09.654Z,-1.75
2022-12-15T11:29:09.623Z,-1.78
2022-12-15T11:30:09.655Z,-1.83
2022-12-15T11:31:09.597Z,-1.90
2022-12-15T11:32:09.615Z,-1.97
2022-12-15T11:33:09.696Z,-2.04
2022-12-15T11:34:09.615Z,-2.04
2022-12-15T11:35:09.596Z,-1.97
2022-12-15T11:36:09.550Z,-1.85
2022-12-15T11:37:09.569Z,-1.79
2022-12-15T11:38:09.535Z,-1.80
2022-12-15T11:39:09.558Z,-1.73
2022-12-15T11:40:09.544Z,-1.70
2022-12-15T11:41:09.524Z,-1.59
2022-12-15T11:42:09.528Z,-1.54
2022-12-15T11:43:09.506Z,-1.46
2022-12-15T11:44:09.477Z,-1.44
2022-12-15T11:45:09.462Z,-1.39
2022-12-15T11:46:09.476Z,-1.44
2022-12-15T11:47:09.530Z,-1.44
2022-12-15T11:48:09.425Z,-1.51
2022-12-15T11:49:09.433Z,-1.49
2022-12-15T11:50:09.435Z,-1.47
2022-12-15T11:51:09.400Z,-1.43
2022-12-15T11:52:09.420Z,-1.44
2022-12-15T11:53:09.403Z,-1.49
2022-12-15T11:54:09.397Z,-1.55
2022-12-15T11:55:09.359Z,-1.49
2022-12-15T11:56:09.386Z,-1.58
2022-12-15T11:57:09.378Z,-1.64
2022-12-15T11:58:09.347Z,-1.64
2022-12-15T11:59:09.339Z,-1.54
2022-12-15T12:00:08.314Z,-1.47
2022-12-15T12:01:09.347Z,-1.47
2022-12-15T12:02:09.343Z,-1.41
2022-12-15T12:03:09.355Z,-1.40
2022-12-15T12:04:09.298Z,-1.36
2022-12-15T12:05:09.274Z,-1.40
2022-12-15T12:06:09.258Z,-1.40
2022-12-15T12:07:09.295Z,-1.39
2022-12-15T12:08:09.304Z,-1.41
2022-12-15T12:09:09.231Z,-1.37
2022-12-15T12:10:09.212Z,-1.40
2022-12-15T12:11:09.315Z,-1.40
2022-12-15T12:12:09.249Z,-1.29
2022-12-15T12:13:09.253Z,-1.25
2022-12-15T12:14:11.708Z,-1.25
2022-12-15T12:15:09.220Z,-1.21
2022-12-15T12:16:09.168Z,-1.16
2022-12-15T12:17:09.179Z,-1.05
2022-12-15T12:18:09.187Z,-1.01
2022-12-15T12:19:09.178Z,-1.05
2022-12-15T12:20:11.511Z,-1.31
2022-12-15T12:21:09.097Z,-1.54
2022-12-15T12:22:09.179Z,-1.64
2022-12-15T12:23:09.086Z,-1.72
2022-12-15T12:24:09.103Z,-1.73
2022-12-15T12:25:09.118Z,-1.75
2022-12-15T12:26:09.060Z,-1.73
2022-12-15T12:27:09.052Z,-1.67
2022-12-15T12:28:09.060Z,-1.61
2022-12-15T12:29:09.055Z,-1.58
2022-12-15T12:30:09.017Z,-1.61
2022-12-15T12:31:09.011Z,-1.61
2022-12-15T12:32:09.012Z,-1.61
2022-12-15T12:33:09.007Z,-1.57
2022-12-15T12:34:08.997Z,-1.49
2022-12-15T12:35:30.654Z,-1.46
2022-12-15T12:36:08.964Z,-1.43
2022-12-15T12:37:09.005Z,-1.39
2022-12-15T12:38:08.939Z,-1.43
2022-12-15T12:39:08.973Z,-1.47
2022-12-15T12:40:08.929Z,-1.55
2022-12-15T12:41:08.915Z,-1.76
2022-12-15T12:42:08.919Z,-1.80
2022-12-15T12:43:13.669Z,-1.76
2022-12-15T12:44:08.916Z,-1.72
2022-12-15T12:45:09.136Z,-1.64
2022-12-15T12:46:08.860Z,-1.59
2022-12-15T12:47:08.912Z,-1.52
2022-12-15T12:48:08.864Z,-1.47
2022-12-15T12:49:08.849Z,-1.39
2022-12-15T12:50:08.840Z,-1.40
2022-12-15T12:51:08.807Z,-1.36
2022-12-15T12:52:08.846Z,-1.34
2022-12-15T12:53:08.792Z,-1.34
2022-12-15T12:54:08.851Z,-1.33